Nearby METAR Reports

 

KSJC - San Jose, California, USA
Distance from station: NE 14km
Actualización: 18/09/2019 18:53
Muy nuboso
Muy nuboso
 Viento del SSE
Viento: SSE 11 km/h
Temperatura: 19°C
Rocío: 13°C
Humedad: 68%
Barómetro: 1015.2 hPa
Clouds: Muy nuboso
Visibility: 16 km
Cloud details: Few Clouds 30 m
Parcialmente nuboso 701 m
Muy nuboso 853 m
2019/09/18 16:53 KSJC 181653Z 15006KT 10SM FEW001 SCT023 BKN028 19/13 A2998 RMK AO2 SLP150 T01940133 $
KNUQ - Moffett Nas/Mtn, California, USA
Distance from station: N 14km
Actualización: 18/09/2019 18:56

 
Barómetro: 1015.2 hPa
2019/09/18 16:56 KNUQ 181656Z A2998 RMK AO2 SLP156 PWINO $
 
KPAO - Palo Alto, California, USA
Distance from station: NNO 23km
Actualización: 18/09/2019 19:19

 
Visibility: 3 km
2019/09/18 17:19 KPAO 181719Z 2907KT 3SM BKN023 19/16 A2999 BR
KRHV - San Jose/Reid, California, USA
Distance from station: ENE 19km
Actualización: 18/09/2019 17:47
NOT Current
Cubierto
Cubierto
 Viento del varies
Viento: varies 7 km/h
Temperatura: 18°C
Rocío: 13°C
Humedad: 73%
Barómetro: 1015.2 hPa
Clouds: Cubierto
Visibility: 16 km
Cloud details: Cubierto 1219 m
2019/09/18 15:47 KRHV 181547Z VRB04KT 10SM OVC040 18/13 A2998
 
KOAK - Oakland, California, USA
Distance from station: NNO 50km
Actualización: 18/09/2019 19:34
Lluvia débil, Cubierto
Lluvia débil, Cubierto
 Viento del SO
Viento: SO 15 km/h
Temperatura: 19°C
Rocío: 17°C
Humedad: 88%
Barómetro: 1014.9 hPa
Resumen: Lluvia débil
Clouds: Cubierto
Visibility: 14 km
Cloud details: Parcialmente nuboso 244 m
Muy nuboso 396 m
Cubierto 1829 m
2019/09/18 17:34 KOAK 181734Z 22008KT 9SM -RA SCT008 BKN013 OVC060 19/17 A2997 RMK AO2 P0000 T01890172
KSQL - San Carlos Airpo, California, USA
Distance from station: NO 34km
Actualización: 18/09/2019 19:30
Mist, Muy nuboso
Mist, Muy nuboso
 Viento del varies
Viento: varies 6 km/h
Temperatura: 18°C
Rocío: 16°C
Humedad: 88%
Barómetro: 1015.6 hPa
Resumen: Mist
Clouds: Muy nuboso
Visibility: 8 km
Cloud details: Parcialmente nuboso 792 m
Muy nuboso 1158 m
2019/09/18 17:30 KSQL 181730Z VRB03KT 5SM BR SCT026 BKN038 18/16 A2999
 
KSFO - San Francisco, California, USA
Distance from station: NO 49km
Actualización: 18/09/2019 18:56
Cubierto
Cubierto
 Viento del S
Viento: S 13 km/h
Temperatura: 19°C
Rocío: 15°C
Humedad: 78%
Barómetro: 1014.6 hPa
Clouds: Cubierto
Visibility: 13 km
Cloud details: Few Clouds 244 m
Muy nuboso 1341 m
Cubierto 1433 m
2019/09/18 16:56 KSFO 181656Z 19007KT 8SM FEW008 BKN044 OVC047 19/15 A2996 RMK AO2 SLP146 T01940150
KE16 - San Martin, California, USA
Distance from station: ESE 43km
Actualización: 05/08/2019 19:10
NOT Current
Despejado
Despejado
 Viento del ESE
Viento: ESE 19 km/h
Temperatura: 19°C
Rocío: 14°C
Humedad: 73%
Barómetro: 1016.9 hPa
Clouds: Despejado
Visibility: 16 km
2019/08/05 17:10 KE16 051710Z AUTO 12010KT 10SM CLR 19/14 A3003 RMK AO2
 
KWVI - Watsonville, California, USA
Distance from station: SSE 44km
Actualización: 13/09/2019 23:53
NOT Current
Despejado
Despejado
 Viento del O
Viento: O 17 km/h
Temperatura: 37°C
Rocío: 4°C
Humedad: 13%
Barómetro: 1013.5 hPa
Clouds: Despejado
Visibility: 16 km
2019/09/13 21:53 KWVI 132153Z AUTO 27009KT 10SM CLR 37/04 A2993 RMK AO2 SLP133 T03670039
KHAF - Half Moon Bay, California, USA
Distance from station: ONO 50km
Actualización: 18/09/2019 19:35
Mist, Cubierto
Mist, Cubierto
 Viento del SSE
Viento: SSE 9 km/h
Temperatura: 15°C
Rocío: 15°C
Humedad: 100%
Barómetro: 1015.6 hPa
Resumen: Mist
Clouds: Cubierto
Visibility: 8 km
Cloud details: Cubierto 91 m
2019/09/18 17:35 KHAF 181735Z AUTO 16005KT 5SM BR OVC003 15/15 A2999 RMK AO2
 
KHWD - Hayward, California, USA
Distance from station: N 44km
Actualización: 18/09/2019 19:07
Lluvia débil, Mist, Cubierto
Lluvia débil, Mist, Cubierto
 Viento del S
Viento: S 9 km/h
Temperatura: 18°C
Rocío: 17°C
Humedad: 94%
Barómetro: 1015.2 hPa
Resumen: Lluvia débil, Mist
Clouds: Cubierto
Visibility: 3 km
Cloud details: Cubierto 396 m
2019/09/18 17:07 KHWD 181707Z 18005KT 2SM -RA BR OVC013 18/17 A2998 RMK AO2 RAE1658B01 T01830167 PNO
KLVK - Livermore, California, USA
Distance from station: NNE 51km
Actualización: 18/09/2019 18:53
Cubierto
Cubierto
 Viento del SO
Viento: SO 15 km/h
Temperatura: 19°C
Rocío: 14°C
Humedad: 73%
Barómetro: 1014.9 hPa
Clouds: Cubierto
Visibility: 16 km
Cloud details: Cubierto 579 m
2019/09/18 16:53 KLVK 181653Z 23008KT 10SM OVC019 19/14 A2997 RMK AO2 SLP147 T01890139